sensor_id;sensor_type;location;lat;lon;timestamp;pressure;altitude;pressure_sealevel;temperature;humidity
29215;BME280;16252;49.816;7.964;2022-11-02T00:01:20;100496.22;;;11.71;59.46
29215;BME280;16252;49.816;7.964;2022-11-02T00:03:46;100477.22;;;11.50;59.49
29215;BME280;16252;49.816;7.964;2022-11-02T00:06:11;100411.28;;;11.11;59.55
29215;BME280;16252;49.816;7.964;2022-11-02T00:08:37;100481.41;;;11.41;59.78
29215;BME280;16252;49.816;7.964;2022-11-02T00:11:02;100461.06;;;11.26;59.65
29215;BME280;16252;49.816;7.964;2022-11-02T00:13:27;100426.72;;;11.07;59.79
29215;BME280;16252;49.816;7.964;2022-11-02T00:15:54;100483.88;;;11.44;59.79
29215;BME280;16252;49.816;7.964;2022-11-02T00:18:19;100465.47;;;11.27;59.85
29215;BME280;16252;49.816;7.964;2022-11-02T00:20:44;100466.00;;;11.32;60.14
29215;BME280;16252;49.816;7.964;2022-11-02T00:23:10;100463.66;;;11.27;59.99
29215;BME280;16252;49.816;7.964;2022-11-02T00:25:41;100463.00;;;11.24;60.15
29215;BME280;16252;49.816;7.964;2022-11-02T00:28:08;100468.25;;;11.25;60.04
29215;BME280;16252;49.816;7.964;2022-11-02T00:30:33;100408.09;;;10.93;60.18
29215;BME280;16252;49.816;7.964;2022-11-02T00:32:59;100443.31;;;11.12;60.05
29215;BME280;16252;49.816;7.964;2022-11-02T00:35:24;100455.50;;;11.16;60.21
29215;BME280;16252;49.816;7.964;2022-11-02T00:37:49;100452.22;;;11.13;60.19
29215;BME280;16252;49.816;7.964;2022-11-02T00:40:14;100448.91;;;11.09;60.10
29215;BME280;16252;49.816;7.964;2022-11-02T00:42:40;100418.59;;;10.96;60.15
29215;BME280;16252;49.816;7.964;2022-11-02T00:45:06;100430.06;;;10.98;60.19
29215;BME280;16252;49.816;7.964;2022-11-02T00:47:33;100471.50;;;11.18;60.51
29215;BME280;16252;49.816;7.964;2022-11-02T00:50:02;100442.81;;;11.07;60.35
29215;BME280;16252;49.816;7.964;2022-11-02T00:52:30;100377.00;;;10.53;60.29
29215;BME280;16252;49.816;7.964;2022-11-02T00:54:55;100461.31;;;11.10;60.46
29215;BME280;16252;49.816;7.964;2022-11-02T00:57:21;100434.78;;;10.94;60.98
29215;BME280;16252;49.816;7.964;2022-11-02T00:59:47;100461.09;;;11.13;61.34
29215;BME280;16252;49.816;7.964;2022-11-02T01:02:12;100452.00;;;11.16;61.44
29215;BME280;16252;49.816;7.964;2022-11-02T01:04:37;100450.28;;;11.15;61.14
29215;BME280;16252;49.816;7.964;2022-11-02T01:07:03;100458.72;;;11.21;60.61
29215;BME280;16252;49.816;7.964;2022-11-02T01:09:28;100436.06;;;11.01;60.19
29215;BME280;16252;49.816;7.964;2022-11-02T01:11:53;100476.19;;;11.27;60.02
29215;BME280;16252;49.816;7.964;2022-11-02T01:14:19;100376.25;;;10.64;60.09
29215;BME280;16252;49.816;7.964;2022-11-02T01:16:45;100370.38;;;10.59;60.04
29215;BME280;16252;49.816;7.964;2022-11-02T01:19:11;100412.09;;;10.74;60.29
29215;BME280;16252;49.816;7.964;2022-11-02T01:21:36;100360.22;;;10.38;60.65
29215;BME280;16252;49.816;7.964;2022-11-02T01:24:02;100455.66;;;11.02;60.60
29215;BME280;16252;49.816;7.964;2022-11-02T01:26:27;100402.88;;;10.66;60.58
29215;BME280;16252;49.816;7.964;2022-11-02T01:28:53;100363.50;;;10.42;60.94
29215;BME280;16252;49.816;7.964;2022-11-02T01:31:19;100381.25;;;10.43;61.04
29215;BME280;16252;49.816;7.964;2022-11-02T01:33:44;100471.81;;;11.13;61.09
29215;BME280;16252;49.816;7.964;2022-11-02T01:36:12;100476.22;;;11.14;61.22
29215;BME280;16252;49.816;7.964;2022-11-02T01:38:37;100448.94;;;10.96;60.87
29215;BME280;16252;49.816;7.964;2022-11-02T01:41:03;100437.78;;;10.90;61.04
29215;BME280;16252;49.816;7.964;2022-11-02T01:43:31;100438.94;;;10.85;61.30
29215;BME280;16252;49.816;7.964;2022-11-02T01:46:07;100461.84;;;11.15;61.52
29215;BME280;16252;49.816;7.964;2022-11-02T01:51:32;100456.56;;;11.26;60.33
29215;BME280;16252;49.816;7.964;2022-11-02T01:54:04;100377.84;;;10.67;61.18
29215;BME280;16252;49.816;7.964;2022-11-02T01:56:32;100384.81;;;10.69;61.23
29215;BME280;16252;49.816;7.964;2022-11-02T01:59:02;100427.16;;;10.88;61.44
29215;BME280;16252;49.816;7.964;2022-11-02T02:01:28;100319.41;;;10.22;61.33
29215;BME280;16252;49.816;7.964;2022-11-02T02:03:55;100370.06;;;10.51;61.41
29215;BME280;16252;49.816;7.964;2022-11-02T02:06:21;100419.38;;;10.85;61.37
29215;BME280;16252;49.816;7.964;2022-11-02T02:08:48;100346.72;;;10.40;61.29
29215;BME280;16252;49.816;7.964;2022-11-02T02:11:35;100416.16;;;10.93;61.16
29215;BME280;16252;49.816;7.964;2022-11-02T02:25:24;100443.66;;;11.07;61.49
29215;BME280;16252;49.816;7.964;2022-11-02T02:30:22;100378.25;;;10.60;61.69
29215;BME280;16252;49.816;7.964;2022-11-02T02:32:56;100316.31;;;10.15;61.71
29215;BME280;16252;49.816;7.964;2022-11-02T02:35:29;100436.16;;;11.00;61.88
29215;BME280;16252;49.816;7.964;2022-11-02T02:38:00;100307.84;;;10.09;61.97
29215;BME280;16252;49.816;7.964;2022-11-02T02:40:30;100440.66;;;10.99;61.88
29215;BME280;16252;49.816;7.964;2022-11-02T02:43:05;100439.59;;;11.02;62.04
29215;BME280;16252;49.816;7.964;2022-11-02T02:45:46;100401.06;;;10.79;62.07
29215;BME280;16252;49.816;7.964;2022-11-02T02:48:19;100362.75;;;10.53;62.07
29215;BME280;16252;49.816;7.964;2022-11-02T02:50:50;100451.78;;;11.06;62.24
29215;BME280;16252;49.816;7.964;2022-11-02T02:53:26;100409.41;;;10.87;62.13
29215;BME280;16252;49.816;7.964;2022-11-02T02:55:53;100409.63;;;10.84;62.46
29215;BME280;16252;49.816;7.964;2022-11-02T02:58:23;100287.63;;;10.05;62.60
29215;BME280;16252;49.816;7.964;2022-11-02T03:00:50;100456.94;;;11.09;62.06
29215;BME280;16252;49.816;7.964;2022-11-02T03:03:19;100450.13;;;11.29;61.18
29215;BME280;16252;49.816;7.964;2022-11-02T03:08:25;100371.13;;;10.61;61.68
29215;BME280;16252;49.816;7.964;2022-11-02T03:10:59;100413.91;;;10.87;62.26
29215;BME280;16252;49.816;7.964;2022-11-02T03:13:51;100414.22;;;10.95;62.11
29215;BME280;16252;49.816;7.964;2022-11-02T03:19:27;100457.66;;;11.24;62.43
29215;BME280;16252;49.816;7.964;2022-11-02T03:22:00;100342.63;;;10.60;62.48
29215;BME280;16252;49.816;7.964;2022-11-02T03:24:33;100370.44;;;10.83;62.53
29215;BME280;16252;49.816;7.964;2022-11-02T03:27:24;100450.31;;;11.39;62.49
29215;BME280;16252;49.816;7.964;2022-11-02T03:30:03;100377.06;;;10.90;62.80
29215;BME280;16252;49.816;7.964;2022-11-02T03:32:37;100450.84;;;11.44;62.67
29215;BME280;16252;49.816;7.964;2022-11-02T03:35:11;100445.63;;;11.42;62.59
29215;BME280;16252;49.816;7.964;2022-11-02T03:37:54;100389.63;;;11.14;62.33
29215;BME280;16252;49.816;7.964;2022-11-02T03:40:25;100441.09;;;11.43;62.93
29215;BME280;16252;49.816;7.964;2022-11-02T03:42:54;100425.16;;;11.28;62.59
29215;BME280;16252;49.816;7.964;2022-11-02T03:45:23;100356.09;;;10.84;63.37
29215;BME280;16252;49.816;7.964;2022-11-02T03:48:03;100391.47;;;11.13;63.19
29215;BME280;16252;49.816;7.964;2022-11-02T03:50:31;100453.09;;;11.50;63.36
29215;BME280;16252;49.816;7.964;2022-11-02T03:53:08;100380.00;;;11.11;63.24
29215;BME280;16252;49.816;7.964;2022-11-02T03:55:39;100451.69;;;11.57;63.36
29215;BME280;16252;49.816;7.964;2022-11-02T03:58:08;100411.53;;;11.44;63.39
29215;BME280;16252;49.816;7.964;2022-11-02T04:00:35;100391.72;;;11.34;63.25
29215;BME280;16252;49.816;7.964;2022-11-02T04:03:03;100484.16;;;11.89;63.26
29215;BME280;16252;49.816;7.964;2022-11-02T04:05:33;100397.59;;;11.39;63.49
29215;BME280;16252;49.816;7.964;2022-11-02T04:08:00;100482.88;;;11.95;63.49
29215;BME280;16252;49.816;7.964;2022-11-02T04:10:44;100412.38;;;11.45;63.00
29215;BME280;16252;49.816;7.964;2022-11-02T04:13:28;100455.50;;;11.66;62.75
29215;BME280;16252;49.816;7.964;2022-11-02T04:16:13;100403.94;;;11.38;62.85
29215;BME280;16252;49.816;7.964;2022-11-02T04:18:39;100418.34;;;11.48;62.97
29215;BME280;16252;49.816;7.964;2022-11-02T04:21:23;100403.31;;;11.35;62.86
29215;BME280;16252;49.816;7.964;2022-11-02T04:23:48;100415.25;;;11.42;62.84
29215;BME280;16252;49.816;7.964;2022-11-02T04:26:32;100385.16;;;11.14;62.64
29215;BME280;16252;49.816;7.964;2022-11-02T04:28:57;100503.25;;;11.85;62.67
29215;BME280;16252;49.816;7.964;2022-11-02T04:31:23;100467.53;;;11.60;62.46
29215;BME280;16252;49.816;7.964;2022-11-02T04:33:48;100431.19;;;11.32;62.37
29215;BME280;16252;49.816;7.964;2022-11-02T04:36:13;100498.38;;;11.66;62.66
29215;BME280;16252;49.816;7.964;2022-11-02T04:38:39;100461.78;;;11.41;62.55
29215;BME280;16252;49.816;7.964;2022-11-02T04:41:05;100435.81;;;11.17;62.81
29215;BME280;16252;49.816;7.964;2022-11-02T04:43:49;100393.97;;;10.91;63.47
29215;BME280;16252;49.816;7.964;2022-11-02T04:46:14;100422.78;;;11.00;63.93
29215;BME280;16252;49.816;7.964;2022-11-02T04:48:39;100414.53;;;10.90;64.25
29215;BME280;16252;49.816;7.964;2022-11-02T04:51:05;100395.28;;;10.85;64.77
29215;BME280;16252;49.816;7.964;2022-11-02T04:53:30;100405.97;;;10.98;65.19
29215;BME280;16252;49.816;7.964;2022-11-02T04:55:55;100447.78;;;11.37;65.10
29215;BME280;16252;49.816;7.964;2022-11-02T04:58:21;100422.25;;;11.32;65.02
29215;BME280;16252;49.816;7.964;2022-11-02T05:00:46;100444.22;;;11.49;65.08
29215;BME280;16252;49.816;7.964;2022-11-02T05:03:11;100372.72;;;11.13;64.81
29215;BME280;16252;49.816;7.964;2022-11-02T05:05:36;100356.47;;;11.03;64.77
29215;BME280;16252;49.816;7.964;2022-11-02T05:08:02;100429.38;;;11.57;64.75
29215;BME280;16252;49.816;7.964;2022-11-02T05:10:27;100455.41;;;11.67;64.66
29215;BME280;16252;49.816;7.964;2022-11-02T05:12:58;100535.19;;;12.25;65.08
29215;BME280;16252;49.816;7.964;2022-11-02T05:15:24;100451.00;;;11.66;64.52
29215;BME280;16252;49.816;7.964;2022-11-02T05:17:49;100515.97;;;12.07;64.79
29215;BME280;16252;49.816;7.964;2022-11-02T05:20:15;100506.97;;;12.08;64.76
29215;BME280;16252;49.816;7.964;2022-11-02T05:22:40;100503.19;;;12.10;64.86
29215;BME280;16252;49.816;7.964;2022-11-02T05:25:07;100523.09;;;12.19;64.94
29215;BME280;16252;49.816;7.964;2022-11-02T05:27:32;100478.72;;;11.91;65.03
29215;BME280;16252;49.816;7.964;2022-11-02T05:29:57;100475.03;;;11.92;65.03
29215;BME280;16252;49.816;7.964;2022-11-02T05:32:24;100501.47;;;12.09;64.90
29215;BME280;16252;49.816;7.964;2022-11-02T05:34:49;100556.91;;;12.46;65.13
29215;BME280;16252;49.816;7.964;2022-11-02T05:37:14;100566.06;;;12.54;65.14
29215;BME280;16252;49.816;7.964;2022-11-02T05:39:40;100487.53;;;12.04;64.88
29215;BME280;16252;49.816;7.964;2022-11-02T05:42:05;100561.19;;;12.60;64.99
29215;BME280;16252;49.816;7.964;2022-11-02T05:44:30;100529.00;;;12.35;64.97
29215;BME280;16252;49.816;7.964;2022-11-02T05:46:56;100481.94;;;12.07;64.78
29215;BME280;16252;49.816;7.964;2022-11-02T05:49:22;100464.63;;;12.00;64.84
29215;BME280;16252;49.816;7.964;2022-11-02T05:51:47;100568.91;;;12.64;64.82
29215;BME280;16252;49.816;7.964;2022-11-02T05:54:13;100530.75;;;12.36;64.70
29215;BME280;16252;49.816;7.964;2022-11-02T05:56:38;100439.03;;;11.83;65.03
29215;BME280;16252;49.816;7.964;2022-11-02T05:59:04;100469.50;;;12.06;65.10
29215;BME280;16252;49.816;7.964;2022-11-02T06:01:29;100542.38;;;12.48;64.99
29215;BME280;16252;49.816;7.964;2022-11-02T06:03:55;100485.03;;;12.14;65.27
29215;BME280;16252;49.816;7.964;2022-11-02T06:06:20;100479.91;;;12.11;65.26
29215;BME280;16252;49.816;7.964;2022-11-02T06:08:46;100524.38;;;12.38;64.99
29215;BME280;16252;49.816;7.964;2022-11-02T06:11:12;100598.19;;;12.91;64.94
29215;BME280;16252;49.816;7.964;2022-11-02T06:13:38;100599.13;;;12.90;65.17
29215;BME280;16252;49.816;7.964;2022-11-02T06:16:05;100604.78;;;12.98;65.09
29215;BME280;16252;49.816;7.964;2022-11-02T06:18:33;100549.97;;;12.66;65.10
29215;BME280;16252;49.816;7.964;2022-11-02T06:20:59;100597.34;;;13.02;64.83
29215;BME280;16252;49.816;7.964;2022-11-02T06:23:25;100476.16;;;12.25;64.99
29215;BME280;16252;49.816;7.964;2022-11-02T06:25:52;100603.69;;;13.01;64.81
29215;BME280;16252;49.816;7.964;2022-11-02T06:28:18;100607.25;;;13.01;64.88
29215;BME280;16252;49.816;7.964;2022-11-02T06:30:43;100515.66;;;12.47;64.98
29215;BME280;16252;49.816;7.964;2022-11-02T06:33:08;100573.13;;;12.79;64.67
29215;BME280;16252;49.816;7.964;2022-11-02T06:35:34;100555.72;;;12.61;64.81
29215;BME280;16252;49.816;7.964;2022-11-02T06:37:59;100575.88;;;12.67;64.78
29215;BME280;16252;49.816;7.964;2022-11-02T06:40:24;100546.78;;;12.49;64.65
29215;BME280;16252;49.816;7.964;2022-11-02T06:42:57;100642.03;;;13.03;64.90
29215;BME280;16252;49.816;7.964;2022-11-02T06:45:23;100634.56;;;12.95;64.71
29215;BME280;16252;49.816;7.964;2022-11-02T06:47:49;100461.97;;;11.87;64.73
29215;BME280;16252;49.816;7.964;2022-11-02T06:50:15;100550.78;;;12.44;64.88
29215;BME280;16252;49.816;7.964;2022-11-02T06:52:44;100534.25;;;12.26;65.11
29215;BME280;16252;49.816;7.964;2022-11-02T06:55:11;100552.88;;;12.27;64.79
29215;BME280;16252;49.816;7.964;2022-11-02T06:57:38;100664.09;;;12.95;64.96
29215;BME280;16252;49.816;7.964;2022-11-02T07:00:05;100580.63;;;12.39;64.95
29215;BME280;16252;49.816;7.964;2022-11-02T07:02:30;100608.91;;;12.56;64.97
29215;BME280;16252;49.816;7.964;2022-11-02T07:04:56;100598.63;;;12.50;65.20
29215;BME280;16252;49.816;7.964;2022-11-02T07:07:21;100574.13;;;12.30;65.16
29215;BME280;16252;49.816;7.964;2022-11-02T07:09:47;100684.84;;;12.93;65.27
29215;BME280;16252;49.816;7.964;2022-11-02T07:12:13;100592.91;;;12.30;65.05
29215;BME280;16252;49.816;7.964;2022-11-02T07:14:38;100594.06;;;12.39;65.33
29215;BME280;16252;49.816;7.964;2022-11-02T07:17:04;100642.34;;;12.63;65.52
29215;BME280;16252;49.816;7.964;2022-11-02T07:19:29;100549.75;;;12.09;65.46
29215;BME280;16252;49.816;7.964;2022-11-02T07:21:55;100666.47;;;12.76;65.41
29215;BME280;16252;49.816;7.964;2022-11-02T07:24:20;100559.28;;;12.13;65.44
29215;BME280;16252;49.816;7.964;2022-11-02T07:26:49;100531.31;;;12.05;65.62
29215;BME280;16252;49.816;7.964;2022-11-02T07:29:15;100540.84;;;12.09;65.70
29215;BME280;16252;49.816;7.964;2022-11-02T07:31:41;100574.00;;;12.32;65.52
29215;BME280;16252;49.816;7.964;2022-11-02T07:34:06;100619.75;;;12.54;65.66
29215;BME280;16252;49.816;7.964;2022-11-02T07:36:32;100666.13;;;12.80;65.58
29215;BME280;16252;49.816;7.964;2022-11-02T07:38:57;100632.59;;;12.62;65.80
29215;BME280;16252;49.816;7.964;2022-11-02T07:41:22;100639.84;;;12.73;65.65
29215;BME280;16252;49.816;7.964;2022-11-02T07:43:48;100561.06;;;12.26;65.75
29215;BME280;16252;49.816;7.964;2022-11-02T07:46:13;100624.72;;;12.72;65.85
29215;BME280;16252;49.816;7.964;2022-11-02T07:48:38;100588.97;;;12.47;65.78
29215;BME280;16252;49.816;7.964;2022-11-02T07:51:04;100568.47;;;12.46;65.76
29215;BME280;16252;49.816;7.964;2022-11-02T07:53:31;100645.31;;;12.95;65.90
29215;BME280;16252;49.816;7.964;2022-11-02T07:55:59;100585.13;;;12.63;65.66
29215;BME280;16252;49.816;7.964;2022-11-02T07:58:24;100637.88;;;12.99;65.62
29215;BME280;16252;49.816;7.964;2022-11-02T08:00:51;100571.13;;;12.70;65.46
29215;BME280;16252;49.816;7.964;2022-11-02T08:03:18;100587.38;;;12.80;65.44
29215;BME280;16252;49.816;7.964;2022-11-02T08:05:44;100618.50;;;13.07;65.33
29215;BME280;16252;49.816;7.964;2022-11-02T08:08:16;100601.88;;;13.01;65.04
29215;BME280;16252;49.816;7.964;2022-11-02T08:10:42;100582.78;;;12.93;65.11
29215;BME280;16252;49.816;7.964;2022-11-02T08:13:09;100673.47;;;13.60;64.97
29215;BME280;16252;49.816;7.964;2022-11-02T08:15:36;100607.50;;;13.21;64.62
29215;BME280;16252;49.816;7.964;2022-11-02T08:18:04;100602.78;;;13.25;64.30
29215;BME280;16252;49.816;7.964;2022-11-02T08:20:31;100604.91;;;13.32;64.60
29215;BME280;16252;49.816;7.964;2022-11-02T08:22:56;100738.81;;;14.19;64.40
29215;BME280;16252;49.816;7.964;2022-11-02T08:25:22;100570.63;;;13.23;64.14
29215;BME280;16252;49.816;7.964;2022-11-02T08:27:47;100684.38;;;14.04;63.95
29215;BME280;16252;49.816;7.964;2022-11-02T08:30:13;100604.41;;;13.61;63.25
29215;BME280;16252;49.816;7.964;2022-11-02T08:32:38;100655.41;;;13.96;63.71
29215;BME280;16252;49.816;7.964;2022-11-02T08:35:04;100596.84;;;13.66;63.31
29215;BME280;16252;49.816;7.964;2022-11-02T08:37:29;100585.84;;;13.69;63.11
29215;BME280;16252;49.816;7.964;2022-11-02T08:39:55;100675.44;;;14.26;63.08
29215;BME280;16252;49.816;7.964;2022-11-02T08:42:20;100591.44;;;13.88;62.87
29215;BME280;16252;49.816;7.964;2022-11-02T08:44:45;100656.81;;;14.23;62.97
29215;BME280;16252;49.816;7.964;2022-11-02T08:47:12;100586.31;;;13.97;62.72
29215;BME280;16252;49.816;7.964;2022-11-02T08:49:37;100685.78;;;14.64;62.64
29215;BME280;16252;49.816;7.964;2022-11-02T08:52:03;100585.31;;;14.09;62.38
29215;BME280;16252;49.816;7.964;2022-11-02T08:54:28;100591.66;;;14.19;62.22
29215;BME280;16252;49.816;7.964;2022-11-02T08:56:54;100613.88;;;14.32;62.05
29215;BME280;16252;49.816;7.964;2022-11-02T08:59:20;100701.38;;;14.93;61.93
29215;BME280;16252;49.816;7.964;2022-11-02T09:01:45;100621.56;;;14.48;61.67
29215;BME280;16252;49.816;7.964;2022-11-02T09:04:10;100704.53;;;14.98;61.68
29215;BME280;16252;49.816;7.964;2022-11-02T09:06:36;100682.88;;;14.88;61.59
29215;BME280;16252;49.816;7.964;2022-11-02T09:09:01;100711.06;;;15.16;61.27
29215;BME280;16252;49.816;7.964;2022-11-02T09:11:26;100665.22;;;14.95;61.00
29215;BME280;16252;49.816;7.964;2022-11-02T09:13:52;100621.25;;;14.74;60.57
29215;BME280;16252;49.816;7.964;2022-11-02T09:16:17;100697.34;;;15.20;60.59
29215;BME280;16252;49.816;7.964;2022-11-02T09:18:42;100599.09;;;14.70;60.20
29215;BME280;16252;49.816;7.964;2022-11-02T09:21:08;100703.22;;;15.46;60.29
29215;BME280;16252;49.816;7.964;2022-11-02T09:23:33;100706.38;;;15.51;59.95
29215;BME280;16252;49.816;7.964;2022-11-02T09:25:59;100712.34;;;15.54;60.05
29215;BME280;16252;49.816;7.964;2022-11-02T09:28:24;100590.44;;;14.88;59.61
29215;BME280;16252;49.816;7.964;2022-11-02T09:30:50;100701.63;;;15.64;59.61
29215;BME280;16252;49.816;7.964;2022-11-02T09:33:16;100706.25;;;15.73;59.19
29215;BME280;16252;49.816;7.964;2022-11-02T09:35:44;100713.13;;;15.87;59.02
29215;BME280;16252;49.816;7.964;2022-11-02T09:38:10;100728.53;;;15.96;59.18
29215;BME280;16252;49.816;7.964;2022-11-02T09:46:03;100774.25;;;16.50;59.12
29215;BME280;16252;49.816;7.964;2022-11-02T09:48:33;100615.25;;;15.54;58.34
29215;BME280;16252;49.816;7.964;2022-11-02T09:54:04;100631.03;;;15.80;58.87
29215;BME280;16252;49.816;7.964;2022-11-02T09:56:32;100633.28;;;15.75;57.93
29215;BME280;16252;49.816;7.964;2022-11-02T09:59:03;100602.63;;;15.76;57.95
29215;BME280;16252;49.816;7.964;2022-11-02T10:01:54;100758.25;;;16.77;57.90
29215;BME280;16252;49.816;7.964;2022-11-02T10:04:48;100787.19;;;16.96;58.02
29215;BME280;16252;49.816;7.964;2022-11-02T10:07:38;100787.50;;;17.03;57.89
29215;BME280;16252;49.816;7.964;2022-11-02T10:10:23;100766.00;;;17.01;56.55
29215;BME280;16252;49.816;7.964;2022-11-02T10:15:53;100764.88;;;17.14;56.29
29215;BME280;16252;49.816;7.964;2022-11-02T10:18:23;100753.94;;;17.05;55.15
29215;BME280;16252;49.816;7.964;2022-11-02T10:20:52;100766.19;;;17.19;54.75
29215;BME280;16252;49.816;7.964;2022-11-02T10:23:25;100762.06;;;17.25;54.55
29215;BME280;16252;49.816;7.964;2022-11-02T10:25:54;100770.31;;;17.33;54.45
29215;BME280;16252;49.816;7.964;2022-11-02T10:28:26;100779.00;;;17.46;54.34
29215;BME280;16252;49.816;7.964;2022-11-02T10:30:53;100744.28;;;17.32;54.25
29215;BME280;16252;49.816;7.964;2022-11-02T10:33:26;100762.63;;;17.67;54.18
29215;BME280;16252;49.816;7.964;2022-11-02T10:39:08;100793.75;;;18.48;57.58
29215;BME280;16252;49.816;7.964;2022-11-02T10:47:19;100776.34;;;20.21;53.94
29215;BME280;16252;49.816;7.964;2022-11-02T10:52:17;100789.72;;;21.42;50.84
29215;BME280;16252;49.816;7.964;2022-11-02T10:54:43;100789.38;;;21.94;49.51
29215;BME280;16252;49.816;7.964;2022-11-02T10:57:13;100789.31;;;22.35;49.31
29215;BME280;16252;49.816;7.964;2022-11-02T10:59:39;100782.66;;;22.46;47.03
29215;BME280;16252;49.816;7.964;2022-11-02T11:02:12;100786.03;;;22.48;46.97
29215;BME280;16252;49.816;7.964;2022-11-02T11:04:39;100782.53;;;22.31;46.50
29215;BME280;16252;49.816;7.964;2022-11-02T11:07:19;100786.97;;;22.07;46.38
29215;BME280;16252;49.816;7.964;2022-11-02T11:09:50;100787.69;;;21.77;46.05
29215;BME280;16252;49.816;7.964;2022-11-02T11:12:27;100777.47;;;21.54;46.45
29215;BME280;16252;49.816;7.964;2022-11-02T11:14:56;100769.78;;;21.25;46.14
29215;BME280;16252;49.816;7.964;2022-11-02T11:17:34;100747.59;;;20.95;47.20
29215;BME280;16252;49.816;7.964;2022-11-02T11:20:00;100765.44;;;20.82;46.36
29215;BME280;16252;49.816;7.964;2022-11-02T11:22:32;100769.25;;;20.63;46.87
29215;BME280;16252;49.816;7.964;2022-11-02T11:25:23;100764.25;;;20.50;47.93
29215;BME280;16252;49.816;7.964;2022-11-02T11:27:54;100749.78;;;20.15;47.53
29215;BME280;16252;49.816;7.964;2022-11-02T11:30:34;100770.56;;;20.24;47.47
29215;BME280;16252;49.816;7.964;2022-11-02T11:33:02;100737.78;;;19.91;47.23
29215;BME280;16252;49.816;7.964;2022-11-02T11:35:34;100746.25;;;19.88;46.95
29215;BME280;16252;49.816;7.964;2022-11-02T11:38:09;100765.63;;;19.94;47.01
29215;BME280;16252;49.816;7.964;2022-11-02T11:40:43;100760.44;;;19.82;46.89
29215;BME280;16252;49.816;7.964;2022-11-02T11:43:12;100716.13;;;19.56;46.86
29215;BME280;16252;49.816;7.964;2022-11-02T11:45:40;100738.06;;;19.62;46.59
29215;BME280;16252;49.816;7.964;2022-11-02T11:51:35;100754.50;;;19.61;48.60
29215;BME280;16252;49.816;7.964;2022-11-02T11:56:44;100751.56;;;19.36;47.05
29215;BME280;16252;49.816;7.964;2022-11-02T11:59:25;100757.94;;;19.45;47.45
29215;BME280;16252;49.816;7.964;2022-11-02T12:01:55;100734.50;;;19.26;47.45
29215;BME280;16252;49.816;7.964;2022-11-02T12:04:32;100716.75;;;19.14;47.18
29215;BME280;16252;49.816;7.964;2022-11-02T12:07:15;100721.19;;;19.15;47.22
29215;BME280;16252;49.816;7.964;2022-11-02T12:12:31;100737.41;;;19.24;48.44
29215;BME280;16252;49.816;7.964;2022-11-02T12:15:25;100735.47;;;19.17;47.50
29215;BME280;16252;49.816;7.964;2022-11-02T12:32:26;100739.84;;;18.82;47.72
29215;BME280;16252;49.816;7.964;2022-11-02T12:35:15;100744.13;;;18.75;47.19
29215;BME280;16252;49.816;7.964;2022-11-02T12:38:09;100723.56;;;18.54;47.03
29215;BME280;16252;49.816;7.964;2022-11-02T12:40:42;100702.97;;;18.44;47.03
29215;BME280;16252;49.816;7.964;2022-11-02T12:46:01;100734.00;;;18.49;47.41
29215;BME280;16252;49.816;7.964;2022-11-02T12:51:21;100727.13;;;18.55;47.23
29215;BME280;16252;49.816;7.964;2022-11-02T12:53:57;100708.78;;;18.49;47.29
29215;BME280;16252;49.816;7.964;2022-11-02T12:56:30;100725.44;;;18.54;47.06
29215;BME280;16252;49.816;7.964;2022-11-02T12:58:57;100718.59;;;18.50;46.55
29215;BME280;16252;49.816;7.964;2022-11-02T13:01:28;100677.22;;;18.30;46.27
29215;BME280;16252;49.816;7.964;2022-11-02T13:04:34;100724.81;;;18.60;47.60
29215;BME280;16252;49.816;7.964;2022-11-02T13:07:09;100699.38;;;18.43;46.34
29215;BME280;16252;49.816;7.964;2022-11-02T13:09:41;100692.16;;;18.34;46.31
29215;BME280;16252;49.816;7.964;2022-11-02T13:12:13;100717.88;;;18.48;46.43
29215;BME280;16252;49.816;7.964;2022-11-02T13:14:42;100706.69;;;18.33;46.41
29215;BME280;16252;49.816;7.964;2022-11-02T13:17:20;100717.94;;;18.38;46.55
29215;BME280;16252;49.816;7.964;2022-11-02T13:19:53;100689.25;;;18.17;46.39
29215;BME280;16252;49.816;7.964;2022-11-02T13:22:22;100715.34;;;18.18;46.85
29215;BME280;16252;49.816;7.964;2022-11-02T13:24:54;100682.47;;;18.04;46.70
29215;BME280;16252;49.816;7.964;2022-11-02T13:27:30;100566.91;;;17.29;46.85
29215;BME280;16252;49.816;7.964;2022-11-02T13:30:05;100537.22;;;17.10;46.92
29215;BME280;16252;49.816;7.964;2022-11-02T13:32:42;100536.19;;;17.11;46.95
29215;BME280;16252;49.816;7.964;2022-11-02T13:35:13;100709.97;;;18.36;48.56
29215;BME280;16252;49.816;7.964;2022-11-02T13:37:46;100710.31;;;18.24;47.04
29215;BME280;16252;49.816;7.964;2022-11-02T13:40:28;100560.50;;;17.30;47.17
29215;BME280;16252;49.816;7.964;2022-11-02T13:45:47;100695.88;;;18.33;48.34
29215;BME280;16252;49.816;7.964;2022-11-02T13:48:37;100676.88;;;18.05;47.60
29215;BME280;16252;49.816;7.964;2022-11-02T13:51:09;100536.47;;;17.18;47.08
29215;BME280;16252;49.816;7.964;2022-11-02T13:53:40;100539.50;;;17.05;46.90
29215;BME280;16252;49.816;7.964;2022-11-02T13:56:12;100674.59;;;17.83;47.14
29215;BME280;16252;49.816;7.964;2022-11-02T13:58:48;100645.69;;;17.64;46.94
29215;BME280;16252;49.816;7.964;2022-11-02T14:01:20;100554.41;;;17.19;47.03
29215;BME280;16252;49.816;7.964;2022-11-02T14:03:52;100690.16;;;18.08;47.25
29215;BME280;16252;49.816;7.964;2022-11-02T14:06:19;100587.75;;;17.47;46.58
29215;BME280;16252;49.816;7.964;2022-11-02T14:08:52;100559.66;;;17.30;46.71
29215;BME280;16252;49.816;7.964;2022-11-02T14:16:58;100619.72;;;17.81;47.31
29215;BME280;16252;49.816;7.964;2022-11-02T14:19:30;100607.50;;;17.67;46.33
29215;BME280;16252;49.816;7.964;2022-11-02T14:27:03;100544.72;;;17.16;46.46
29215;BME280;16252;49.816;7.964;2022-11-02T14:29:51;100692.28;;;18.05;46.20